createdAt,value
2022-08-04T00:00:07.749Z,50.75
2022-08-04T00:03:14.245Z,51.00
2022-08-04T00:06:32.677Z,51.07
2022-08-04T00:10:04.933Z,51.22
2022-08-04T00:12:57.200Z,50.87
2022-08-04T00:15:45.583Z,51.31
2022-08-04T00:18:40.615Z,51.02
2022-08-04T00:21:29.745Z,51.26
2022-08-04T00:24:21.008Z,51.27
2022-08-04T00:27:09.567Z,51.67
2022-08-04T00:29:59.102Z,51.67
2022-08-04T00:32:47.659Z,52.16
2022-08-04T00:35:36.354Z,52.26
2022-08-04T00:38:25.695Z,52.18
2022-08-04T00:41:56.368Z,52.70
2022-08-04T00:46:10.754Z,53.52
2022-08-04T00:49:26.840Z,54.00
2022-08-04T00:52:37.497Z,54.56
2022-08-04T00:56:20.122Z,54.99
2022-08-04T00:59:29.486Z,55.18
2022-08-04T01:02:29.522Z,56.04
2022-08-04T01:06:09.794Z,56.47
2022-08-04T01:09:25.137Z,56.32
2022-08-04T01:12:43.685Z,56.88
2022-08-04T01:15:59.785Z,57.30
2022-08-04T01:19:07.030Z,57.59
2022-08-04T01:22:14.109Z,57.67
2022-08-04T01:25:50.083Z,57.45
2022-08-04T01:29:10.912Z,57.86
2022-08-04T01:32:26.606Z,57.76
2022-08-04T01:35:46.813Z,57.79
2022-08-04T01:38:44.747Z,57.10
2022-08-04T01:41:33.123Z,57.57
2022-08-04T01:44:24.625Z,57.40
2022-08-04T01:47:12.642Z,57.29
2022-08-04T01:50:09.607Z,57.57
2022-08-04T01:52:57.717Z,57.64
2022-08-04T01:55:54.914Z,57.51
2022-08-04T01:58:43.444Z,57.81
2022-08-04T02:01:36.517Z,58.16
2022-08-04T02:04:24.370Z,59.25
2022-08-04T02:08:02.022Z,60.06
2022-08-04T02:11:05.138Z,60.06
2022-08-04T02:14:42.924Z,60.35
2022-08-04T02:17:59.884Z,60.14
2022-08-04T02:21:02.131Z,61.24
2022-08-04T02:23:55.557Z,61.44
2022-08-04T02:26:49.963Z,61.98
2022-08-04T02:29:47.881Z,62.02
2022-08-04T02:32:41.560Z,62.14
2022-08-04T02:35:38.742Z,62.53
2022-08-04T02:38:57.152Z,63.01
2022-08-04T02:41:47.538Z,62.68
2022-08-04T02:44:37.654Z,62.87
2022-08-04T02:48:28.869Z,62.96
2022-08-04T02:50:37.618Z,63.56
2022-08-04T02:53:27.079Z,64.22
2022-08-04T02:56:19.205Z,66.29
2022-08-04T02:59:12.447Z,66.88
2022-08-04T03:02:00.196Z,66.00
2022-08-04T03:05:18.629Z,66.51
2022-08-04T03:08:56.483Z,65.82
2022-08-04T03:12:14.358Z,66.30
2022-08-04T03:15:42.320Z,65.96
2022-08-04T03:18:51.757Z,65.87
2022-08-04T03:22:00.941Z,65.87
2022-08-04T03:25:54.445Z,66.51
2022-08-04T03:29:37.135Z,66.24
2022-08-04T03:33:02.240Z,66.75
2022-08-04T03:36:40.697Z,66.83
2022-08-04T03:40:12.292Z,67.34
2022-08-04T03:43:58.917Z,67.89
2022-08-04T03:46:57.413Z,68.43
2022-08-04T03:50:17.381Z,68.25
2022-08-04T03:53:20.194Z,68.17
2022-08-04T03:56:35.965Z,67.76
2022-08-04T04:00:14.421Z,67.95
2022-08-04T04:03:41.479Z,68.03
2022-08-04T04:06:32.184Z,68.09
2022-08-04T04:10:06.401Z,68.44
2022-08-04T04:13:42.423Z,68.84
2022-08-04T04:17:03.896Z,68.28
2022-08-04T04:20:52.391Z,68.36
2022-08-04T04:24:16.859Z,68.10
2022-08-04T04:27:26.328Z,67.81
2022-08-04T04:30:23.730Z,67.79
2022-08-04T04:33:54.036Z,67.60
2022-08-04T04:37:13.257Z,68.63
2022-08-04T04:40:28.911Z,67.66
2022-08-04T04:43:51.982Z,68.11
2022-08-04T04:47:14.813Z,69.10
2022-08-04T04:50:36.498Z,68.67
2022-08-04T04:53:28.810Z,68.75
2022-08-04T04:56:40.974Z,72.91
2022-08-04T04:59:34.839Z,71.48
2022-08-04T05:03:00.152Z,73.13
2022-08-04T05:06:22.364Z,71.56
2022-08-04T05:09:56.845Z,69.53
2022-08-04T05:14:38.770Z,68.33
2022-08-04T05:16:25.157Z,66.51
2022-08-04T05:19:45.391Z,66.46
2022-08-04T05:23:07.242Z,66.82
2022-08-04T05:26:01.536Z,64.10
2022-08-04T05:28:55.039Z,63.94
2022-08-04T05:31:50.812Z,63.10
2022-08-04T05:34:48.147Z,61.83
2022-08-04T05:37:38.654Z,62.57
2022-08-04T05:40:30.010Z,61.69
2022-08-04T05:43:19.335Z,60.60
2022-08-04T05:46:08.767Z,59.30
2022-08-04T05:48:56.737Z,58.63
2022-08-04T05:51:47.192Z,57.82
2022-08-04T05:54:36.738Z,56.35
2022-08-04T05:57:26.215Z,56.43
2022-08-04T06:00:38.472Z,55.27
2022-08-04T06:03:24.113Z,54.08
2022-08-04T06:06:13.219Z,52.72
2022-08-04T06:09:01.287Z,51.63
2022-08-04T06:12:00.896Z,50.20
2022-08-04T06:14:59.614Z,50.62
2022-08-04T06:18:35.172Z,49.66
2022-08-04T06:21:16.027Z,49.93
2022-08-04T06:24:06.946Z,47.63
2022-08-04T06:26:56.337Z,46.13
2022-08-04T06:29:51.302Z,45.67
2022-08-04T06:32:48.475Z,45.53
2022-08-04T06:35:36.350Z,44.30
2022-08-04T06:38:27.491Z,43.33
2022-08-04T06:41:18.950Z,43.04
2022-08-04T06:44:10.573Z,43.06
2022-08-04T06:46:59.107Z,43.23
2022-08-04T06:51:26.689Z,42.73
2022-08-04T06:53:02.594Z,42.71
2022-08-04T06:55:52.023Z,42.18
2022-08-04T06:58:41.078Z,41.50
2022-08-04T07:01:30.614Z,41.67
2022-08-04T07:04:19.036Z,41.10
2022-08-04T07:07:07.015Z,40.94
2022-08-04T07:09:57.628Z,41.90
2022-08-04T07:12:46.469Z,42.31
2022-08-04T07:15:36.112Z,41.31
2022-08-04T07:18:24.271Z,38.70
2022-08-04T07:21:23.021Z,38.62
2022-08-04T07:24:10.842Z,36.90
2022-08-04T07:27:01.550Z,36.99
2022-08-04T07:29:52.379Z,37.01
2022-08-04T07:32:43.137Z,35.34
2022-08-04T07:36:05.269Z,34.89
2022-08-04T07:38:48.409Z,36.76
2022-08-04T07:41:48.724Z,34.62
2022-08-04T07:44:37.553Z,32.92
2022-08-04T07:47:28.772Z,33.96
2022-08-04T07:50:21.689Z,32.77
2022-08-04T07:53:53.900Z,32.51
2022-08-04T07:56:35.741Z,33.16
2022-08-04T07:59:33.312Z,32.50
2022-08-04T08:02:30.256Z,29.96
2022-08-04T08:05:24.411Z,29.97
2022-08-04T08:08:14.811Z,29.64
2022-08-04T08:11:09.908Z,28.92
2022-08-04T08:14:00.819Z,29.66
2022-08-04T08:16:49.609Z,29.50
2022-08-04T08:19:40.422Z,28.81
2022-08-04T08:22:34.027Z,27.76
2022-08-04T08:25:27.216Z,27.31
2022-08-04T08:28:16.690Z,27.55
2022-08-04T08:31:07.508Z,27.56
2022-08-04T08:34:01.298Z,27.12
2022-08-04T08:37:23.135Z,26.00
2022-08-04T08:40:52.696Z,24.04
2022-08-04T08:44:07.018Z,23.35
2022-08-04T08:48:05.279Z,21.41
2022-08-04T08:51:39.072Z,19.84
2022-08-04T08:55:15.151Z,18.97
2022-08-04T08:58:35.881Z,18.03
2022-08-04T09:02:16.859Z,18.15
2022-08-04T09:06:04.868Z,18.40
2022-08-04T09:09:25.203Z,17.38
2022-08-04T09:12:36.290Z,16.56
2022-08-04T09:15:39.781Z,16.53
2022-08-04T09:19:17.644Z,15.78
2022-08-04T09:23:01.794Z,16.21
2022-08-04T09:26:28.608Z,16.69
2022-08-04T09:29:28.804Z,16.09
2022-08-04T09:32:38.234Z,15.12
2022-08-04T09:35:48.251Z,14.62
2022-08-04T09:39:02.824Z,15.58
2022-08-04T09:42:43.968Z,15.26
2022-08-04T09:45:48.864Z,14.61
2022-08-04T09:48:52.636Z,14.36
2022-08-04T09:52:10.218Z,14.42
2022-08-04T09:55:32.249Z,13.97
2022-08-04T09:58:41.226Z,14.96
2022-08-04T10:01:35.765Z,15.37
2022-08-04T10:04:36.775Z,14.75
2022-08-04T10:08:16.058Z,15.73
2022-08-04T10:11:55.881Z,14.84
2022-08-04T10:15:16.747Z,14.66
2022-08-04T10:18:21.661Z,14.67
2022-08-04T10:21:50.962Z,15.84
2022-08-04T10:26:07.171Z,14.60
2022-08-04T10:29:14.575Z,16.01
2022-08-04T10:32:29.495Z,15.30
2022-08-04T10:35:33.376Z,14.67
2022-08-04T10:38:46.619Z,15.05
2022-08-04T10:42:10.726Z,14.95
2022-08-04T10:45:19.527Z,14.00
2022-08-04T10:48:34.756Z,14.89
2022-08-04T10:51:57.698Z,16.22
2022-08-04T10:56:06.529Z,19.03
2022-08-04T10:58:58.659Z,19.92
2022-08-04T11:02:03.315Z,21.69
2022-08-04T11:05:22.099Z,21.08
2022-08-04T11:08:37.043Z,22.17
2022-08-04T11:12:00.506Z,24.95
2022-08-04T11:15:17.712Z,24.02
2022-08-04T11:18:50.228Z,24.80
2022-08-04T11:21:47.884Z,25.36
2022-08-04T11:25:01.105Z,26.99
2022-08-04T11:28:18.684Z,26.27
2022-08-04T11:31:43.757Z,24.80
2022-08-04T11:34:37.379Z,24.58
2022-08-04T11:38:01.480Z,23.84
2022-08-04T11:41:02.627Z,24.18
2022-08-04T11:44:02.418Z,24.63
2022-08-04T11:47:03.354Z,24.46
2022-08-04T11:50:21.245Z,24.89
2022-08-04T11:53:22.894Z,23.34
2022-08-04T11:56:35.981Z,22.70
2022-08-04T11:59:26.627Z,24.97
2022-08-04T12:02:51.054Z,23.59
2022-08-04T12:06:09.632Z,24.64
2022-08-04T12:09:15.889Z,22.86
2022-08-04T12:12:20.871Z,23.67
2022-08-04T12:15:25.789Z,23.00
2022-08-04T12:18:41.454Z,22.39
2022-08-04T12:21:53.071Z,22.37
2022-08-04T12:25:05.948Z,21.72
2022-08-04T12:28:46.392Z,22.02
2022-08-04T12:31:53.158Z,22.10
2022-08-04T12:35:08.673Z,25.69
2022-08-04T12:38:07.815Z,24.02
2022-08-04T12:41:02.974Z,22.06
2022-08-04T12:43:55.785Z,22.73
2022-08-04T12:46:49.355Z,21.99
2022-08-04T12:49:56.242Z,21.95
2022-08-04T12:53:03.490Z,19.78
2022-08-04T12:56:02.178Z,20.50
2022-08-04T12:59:02.119Z,20.08
2022-08-04T13:02:10.206Z,19.16
2022-08-04T13:05:05.977Z,21.78
2022-08-04T13:07:54.877Z,21.04
2022-08-04T13:10:51.331Z,22.91
2022-08-04T13:13:40.908Z,22.86
2022-08-04T13:16:33.625Z,23.35
2022-08-04T13:19:21.999Z,23.47
2022-08-04T13:22:16.220Z,23.50
2022-08-04T13:25:18.139Z,21.74
2022-08-04T13:28:30.196Z,22.71
2022-08-04T13:31:35.704Z,21.91
2022-08-04T13:34:29.410Z,22.12
2022-08-04T13:37:34.774Z,24.44
2022-08-04T13:40:30.939Z,21.58
2022-08-04T13:44:16.727Z,21.80
2022-08-04T13:46:59.154Z,23.11
2022-08-04T13:50:32.293Z,20.88
2022-08-04T13:53:31.172Z,21.25
2022-08-04T13:56:26.292Z,20.84
2022-08-04T13:59:21.857Z,20.64
2022-08-04T14:02:36.560Z,21.27
2022-08-04T14:05:33.888Z,22.26
2022-08-04T14:08:31.493Z,22.65
2022-08-04T14:12:06.700Z,24.44
2022-08-04T14:14:52.294Z,24.40
2022-08-04T14:17:45.694Z,22.73
2022-08-04T14:20:38.305Z,22.47
2022-08-04T14:23:47.010Z,23.18
2022-08-04T14:26:41.439Z,22.89
2022-08-04T14:29:43.167Z,23.46
2022-08-04T14:32:35.515Z,22.74
2022-08-04T14:35:49.990Z,22.78
2022-08-04T14:38:47.671Z,22.91
2022-08-04T14:41:48.201Z,22.55
2022-08-04T14:45:01.463Z,22.51
2022-08-04T14:47:53.310Z,22.55
2022-08-04T14:50:51.044Z,22.53
2022-08-04T14:53:52.525Z,23.00
2022-08-04T14:56:57.839Z,23.20
2022-08-04T14:59:59.421Z,23.09
2022-08-04T15:02:52.713Z,22.49
2022-08-04T15:06:03.130Z,22.60
2022-08-04T15:09:00.026Z,23.38
2022-08-04T15:11:53.012Z,25.98
2022-08-04T15:14:44.951Z,22.51
2022-08-04T15:17:37.799Z,23.44
2022-08-04T15:20:26.187Z,23.68
2022-08-04T15:23:21.778Z,25.39
2022-08-04T15:26:36.861Z,22.84
2022-08-04T15:30:00.528Z,22.65
2022-08-04T15:32:54.954Z,23.23
2022-08-04T15:35:55.690Z,23.40
2022-08-04T15:39:36.096Z,24.19
2022-08-04T15:42:50.485Z,23.40
2022-08-04T15:46:42.760Z,23.16
2022-08-04T15:49:23.205Z,23.01
2022-08-04T15:52:23.016Z,24.47
2022-08-04T15:55:36.384Z,23.75
2022-08-04T15:58:27.485Z,23.99
2022-08-04T16:01:19.537Z,23.01
2022-08-04T16:04:27.048Z,24.77
2022-08-04T16:07:17.049Z,25.22
2022-08-04T16:10:47.010Z,23.76
2022-08-04T16:13:42.503Z,23.96
2022-08-04T16:16:53.092Z,23.32
2022-08-04T16:20:08.327Z,22.65
2022-08-04T16:23:13.571Z,22.26
2022-08-04T16:26:05.027Z,22.75
2022-08-04T16:28:54.991Z,22.45
2022-08-04T16:32:11.619Z,22.35
2022-08-04T16:35:05.248Z,22.43
2022-08-04T16:38:14.701Z,22.43
2022-08-04T16:41:09.467Z,21.70
2022-08-04T16:44:52.245Z,21.56
2022-08-04T16:47:49.346Z,22.58
2022-08-04T16:51:09.487Z,22.34
2022-08-04T16:54:11.118Z,22.42
2022-08-04T16:57:15.737Z,25.19
2022-08-04T17:00:08.718Z,24.29
2022-08-04T17:02:59.263Z,24.71
2022-08-04T17:05:51.730Z,26.74
2022-08-04T17:08:43.350Z,23.73
2022-08-04T17:11:38.225Z,24.30
2022-08-04T17:14:31.267Z,25.63
2022-08-04T17:17:59.150Z,25.77
2022-08-04T17:21:01.326Z,25.39
2022-08-04T17:24:12.619Z,24.74
2022-08-04T17:28:09.262Z,25.31
2022-08-04T17:30:30.232Z,25.99
2022-08-04T17:33:19.879Z,24.60
2022-08-04T17:36:14.714Z,26.18
2022-08-04T17:39:17.069Z,26.20
2022-08-04T17:42:13.367Z,24.86
2022-08-04T17:48:28.183Z,25.33
2022-08-04T17:51:20.002Z,24.64
2022-08-04T17:54:29.764Z,25.14
2022-08-04T17:57:25.457Z,24.63
2022-08-04T18:00:19.550Z,24.07
2022-08-04T18:03:10.216Z,24.27
2022-08-04T18:06:15.071Z,24.33
2022-08-04T18:09:22.171Z,24.67
2022-08-04T18:12:25.925Z,25.09
2022-08-04T18:15:29.985Z,25.27
2022-08-04T18:18:35.245Z,25.44
2022-08-04T18:21:28.958Z,25.72
2022-08-04T18:24:16.801Z,25.88
2022-08-04T18:27:09.166Z,25.82
2022-08-04T18:30:31.188Z,26.59
2022-08-04T18:33:40.315Z,26.95
2022-08-04T18:36:29.836Z,26.68
2022-08-04T18:40:09.589Z,27.17
2022-08-04T18:42:37.531Z,27.11
2022-08-04T18:45:34.427Z,26.93
2022-08-04T18:48:36.034Z,27.16
2022-08-04T18:51:30.792Z,27.07
2022-08-04T18:54:24.604Z,27.29
2022-08-04T18:57:32.039Z,27.01
2022-08-04T19:00:26.260Z,27.40
2022-08-04T19:03:21.995Z,27.61
2022-08-04T19:06:11.105Z,27.62
2022-08-04T19:09:01.440Z,28.05
2022-08-04T19:11:55.633Z,28.21
2022-08-04T19:14:49.576Z,28.18
2022-08-04T19:17:52.492Z,28.64
2022-08-04T19:20:48.999Z,28.83
2022-08-04T19:24:30.337Z,29.29
2022-08-04T19:26:52.671Z,29.41
2022-08-04T19:29:43.066Z,29.35
2022-08-04T19:32:35.844Z,29.83
2022-08-04T19:35:28.671Z,29.72
2022-08-04T19:38:18.883Z,30.12
2022-08-04T19:44:19.664Z,30.38
2022-08-04T19:48:21.408Z,30.51
2022-08-04T19:50:24.412Z,30.82
2022-08-04T19:53:18.817Z,31.19
2022-08-04T19:56:07.890Z,30.98
2022-08-04T19:58:55.730Z,31.25
2022-08-04T20:01:45.517Z,31.31
2022-08-04T20:04:36.963Z,31.86
2022-08-04T20:07:27.360Z,32.35
2022-08-04T20:10:17.035Z,33.02
2022-08-04T20:13:05.636Z,33.48
2022-08-04T20:16:01.487Z,33.90
2022-08-04T20:18:55.510Z,34.46
2022-08-04T20:21:55.671Z,34.80
2022-08-04T20:24:59.945Z,35.65
2022-08-04T20:28:00.258Z,35.47
2022-08-04T20:30:51.226Z,36.06
2022-08-04T20:33:41.394Z,36.23
2022-08-04T20:36:37.180Z,36.45
2022-08-04T20:39:25.170Z,36.53
2022-08-04T20:42:14.489Z,36.87
2022-08-04T20:45:02.924Z,36.99
2022-08-04T20:47:54.089Z,37.18
2022-08-04T20:50:47.789Z,37.40
2022-08-04T20:53:52.993Z,37.30
2022-08-04T20:56:41.701Z,37.90
2022-08-04T20:59:38.843Z,37.78
2022-08-04T21:02:27.354Z,37.97
2022-08-04T21:05:15.238Z,38.16
2022-08-04T21:08:03.070Z,38.48
2022-08-04T21:10:50.895Z,38.45
2022-08-04T21:13:52.121Z,38.82
2022-08-04T21:16:55.468Z,38.97
2022-08-04T21:19:44.093Z,39.60
2022-08-04T21:22:37.330Z,39.56
2022-08-04T21:25:25.607Z,40.16
2022-08-04T21:28:20.417Z,40.39
2022-08-04T21:31:11.091Z,40.72
2022-08-04T21:34:10.376Z,40.93
2022-08-04T21:37:01.406Z,41.33
2022-08-04T21:40:02.788Z,41.32
2022-08-04T21:42:59.419Z,41.48
2022-08-04T21:45:50.923Z,41.98
2022-08-04T21:48:44.803Z,42.30
2022-08-04T21:52:00.169Z,42.05
2022-08-04T21:54:46.528Z,42.74
2022-08-04T21:57:44.567Z,42.90
2022-08-04T22:00:34.555Z,42.97
2022-08-04T22:03:39.519Z,43.36
2022-08-04T22:06:33.041Z,43.67
2022-08-04T22:09:23.481Z,44.28
2022-08-04T22:12:12.404Z,44.92
2022-08-04T22:15:23.005Z,45.07
2022-08-04T22:18:12.309Z,45.62
2022-08-04T22:21:00.175Z,46.04
2022-08-04T22:23:50.549Z,46.52
2022-08-04T22:26:38.346Z,46.64
2022-08-04T22:29:34.195Z,46.99
2022-08-04T22:32:27.278Z,47.24
2022-08-04T22:35:42.771Z,47.57
2022-08-04T22:38:41.801Z,47.40
2022-08-04T22:41:34.428Z,47.95
2022-08-04T22:44:39.060Z,47.99
2022-08-04T22:47:27.426Z,48.11
2022-08-04T22:50:27.689Z,48.20
2022-08-04T22:53:18.370Z,48.23
2022-08-04T22:56:09.602Z,49.07
2022-08-04T22:58:58.762Z,49.64
2022-08-04T23:02:00.467Z,49.53
2022-08-04T23:04:54.042Z,50.23
2022-08-04T23:07:49.492Z,49.79
2022-08-04T23:10:44.602Z,50.37
2022-08-04T23:13:32.452Z,50.82
2022-08-04T23:16:25.073Z,51.03
2022-08-04T23:19:19.521Z,51.17
2022-08-04T23:22:16.045Z,51.31
2022-08-04T23:25:07.524Z,51.60
2022-08-04T23:28:04.815Z,52.01
2022-08-04T23:30:55.840Z,51.41
2022-08-04T23:33:51.164Z,51.72
2022-08-04T23:36:40.622Z,52.00
2022-08-04T23:40:03.959Z,52.79
2022-08-04T23:42:36.214Z,52.50
2022-08-04T23:46:03.648Z,52.60
2022-08-04T23:48:32.150Z,52.16
2022-08-04T23:51:20.720Z,51.62
2022-08-04T23:54:08.519Z,51.73
2022-08-04T23:56:59.107Z,51.72
2022-08-04T23:59:54.263Z,51.87
